Time;durP1;ratioP1;P1;durP2;ratioP2;P2;SDS_P1;SDS_P2;PMS_P1;PMS_P2;Temp;Humidity;BMP_temperature;BMP_pressure;BME280_temperature;BME280_humidity;BME280_pressure;Samples;Min_cycle;Max_cycle;Signal;HPM_P1;HPM_P2
2023/01/07 00:00:49;;;;;;;3.13;2.83;;;;;;;9.60;55.77;100271.00;5036528;28;20194;-81
2023/01/07 00:03:16;;;;;;;2.57;2.37;;;;;;;9.56;55.04;100279.50;5036718;28;20197;-82
2023/01/07 00:05:43;;;;;;;3.40;2.47;;;;;;;9.49;55.64;100274.06;5052482;28;20192;-81
2023/01/07 00:08:10;;;;;;;2.50;2.30;;;;;;;9.50;54.82;100269.56;5052082;28;20283;-76
2023/01/07 00:10:37;;;;;;;2.93;2.57;;;;;;;9.42;55.71;100274.88;5052465;28;20192;-80
2023/01/07 00:13:05;;;;;;;2.30;2.20;;;;;;;9.45;55.09;100282.50;5051194;28;20737;-79
2023/01/07 00:15:31;;;;;;;3.10;2.90;;;;;;;9.46;55.72;100278.84;5052340;28;20196;-82
2023/01/07 00:17:58;;;;;;;2.77;2.57;;;;;;;9.49;54.60;100278.50;5052097;28;20257;-81
2023/01/07 00:20:25;;;;;;;2.90;2.60;;;;;;;9.41;54.80;100279.38;5052315;28;20262;-82
2023/01/07 00:22:51;;;;;;;2.50;2.30;;;;;;;9.19;55.32;100287.19;5052572;28;20228;-81
2023/01/07 00:25:18;;;;;;;2.60;2.40;;;;;;;9.01;56.12;100287.38;5048219;28;20251;-80
2023/01/07 00:27:45;;;;;;;3.10;2.90;;;;;;;9.12;56.46;100288.84;5051843;28;20216;-80
2023/01/07 00:30:14;;;;;;;2.90;2.70;;;;;;;9.15;56.85;100301.78;5044171;28;20197;-83
2023/01/07 00:32:53;;;;;;;3.13;2.93;;;;;;;9.17;56.22;100294.47;5032102;28;20193;-82
2023/01/07 00:35:23;;;;;;;2.67;2.47;;;;;;;9.16;56.44;100288.38;5031979;28;20568;-82
2023/01/07 00:37:50;;;;;;;3.60;2.70;;;;;;;9.19;55.63;100287.19;5032189;28;20252;-80
2023/01/07 00:40:17;;;;;;;2.73;2.63;;;;;;;9.23;55.69;100297.28;5032338;28;20255;-80
2023/01/07 00:45:38;;;;;;;2.50;2.40;;;;;;;9.20;56.07;100304.75;5024449;28;20329;-81
2023/01/07 00:48:05;;;;;;;2.57;2.40;;;;;;;9.11;56.93;100303.91;5051605;28;20703;-81
2023/01/07 00:50:34;;;;;;;3.83;2.57;;;;;;;9.05;57.21;100307.25;5051660;28;20192;-81
2023/01/07 00:53:02;;;;;;;2.70;2.60;;;;;;;8.92;57.61;100306.09;5052124;28;20196;-90
2023/01/07 00:55:29;;;;;;;2.67;2.47;;;;;;;8.86;57.75;100301.47;5035562;28;20726;-88
2023/01/07 00:57:56;;;;;;;2.40;2.27;;;;;;;8.89;56.92;100311.72;5040209;28;20259;-89
2023/01/07 01:00:24;;;;;;;4.70;2.23;;;;;;;8.88;57.51;100310.06;5051999;28;20192;-88
2023/01/07 01:02:53;;;;;;;2.87;2.50;;;;;;;8.84;57.17;100308.72;5052242;28;20192;-86
2023/01/07 01:05:21;;;;;;;2.83;2.37;;;;;;;8.80;57.77;100310.91;5051502;28;20193;-86
2023/01/07 01:07:48;;;;;;;2.70;2.60;;;;;;;8.78;58.21;100309.41;5034462;28;20766;-82
2023/01/07 01:10:18;;;;;;;3.00;2.70;;;;;;;8.75;57.64;100304.44;5035935;28;20197;-81
2023/01/07 01:12:46;;;;;;;2.50;2.40;;;;;;;8.69;58.06;100297.97;5036154;28;20196;-82
2023/01/07 01:15:15;;;;;;;5.60;3.17;;;;;;;8.61;57.65;100289.16;5036123;28;20189;-81
2023/01/07 01:17:42;;;;;;;2.97;2.53;;;;;;;8.55;58.52;100297.78;5035395;28;20660;-81
2023/01/07 01:20:12;;;;;;;3.90;2.83;;;;;;;8.51;58.07;100299.09;5053396;28;20196;-80
2023/01/07 01:22:39;;;;;;;2.77;2.57;;;;;;;8.49;58.25;100303.75;5055306;28;20695;-80
2023/01/07 01:25:06;;;;;;;2.63;2.43;;;;;;;8.42;58.79;100298.25;5055461;28;20201;-81
2023/01/07 01:27:33;;;;;;;3.17;2.77;;;;;;;8.38;59.19;100307.50;5054884;28;20699;-81
2023/01/07 01:30:01;;;;;;;2.53;2.20;;;;;;;8.34;59.84;100297.41;5048810;28;20578;-80
2023/01/07 01:32:28;;;;;;;3.23;3.03;;;;;;;8.33;59.59;100301.06;5035522;28;20189;-80
2023/01/07 01:34:54;;;;;;;2.90;2.70;;;;;;;8.27;59.89;100299.88;5041846;28;20692;-83
2023/01/07 01:37:23;;;;;;;2.93;2.73;;;;;;;8.26;59.86;100294.75;5054293;28;20747;-80
2023/01/07 01:39:50;;;;;;;3.17;2.97;;;;;;;8.21;59.23;100299.72;5055193;28;20250;-85
2023/01/07 01:42:21;;;;;;;3.17;2.97;;;;;;;8.09;60.12;100290.38;5054963;28;20250;-89
2023/01/07 01:44:50;;;;;;;3.17;2.90;;;;;;;8.02;60.48;100297.28;5053329;28;20187;-83
2023/01/07 01:47:22;;;;;;;3.17;2.97;;;;;;;8.02;60.48;100289.34;5035193;28;20221;-83
2023/01/07 01:49:56;;;;;;;2.73;2.60;;;;;;;7.90;60.19;100285.34;5034797;28;20216;-84
2023/01/07 01:52:30;;;;;;;3.43;3.20;;;;;;;7.83;61.07;100279.03;5035749;28;20185;-83
2023/01/07 01:55:01;;;;;;;3.70;3.40;;;;;;;7.75;61.59;100282.47;5034439;28;20568;-84
2023/01/07 01:57:31;;;;;;;3.60;3.30;;;;;;;7.69;61.15;100275.19;5035189;28;20189;-87
2023/01/07 01:59:59;;;;;;;3.83;3.63;;;;;;;7.48;61.50;100253.56;5034870;28;20197;-84
2023/01/07 02:02:29;;;;;;;4.20;3.80;;;;;;;7.52;62.21;100275.25;5035339;28;20205;-81
2023/01/07 02:04:57;;;;;;;4.23;3.73;;;;;;;7.55;62.17;100291.63;5034560;28;20245;-80
2023/01/07 02:07:25;;;;;;;3.30;3.00;;;;;;;7.46;62.85;100291.72;5043014;28;20299;-80
2023/01/07 02:09:59;;;;;;;4.17;3.87;;;;;;;7.45;62.45;100293.56;5054297;28;20196;-79
2023/01/07 02:12:39;;;;;;;3.47;3.27;;;;;;;7.44;62.35;100304.28;5054037;28;20206;-80
2023/01/07 02:15:12;;;;;;;3.70;3.40;;;;;;;7.33;62.85;100296.59;5054738;28;20189;-82
2023/01/07 02:18:09;;;;;;;3.73;3.50;;;;;;;7.26;62.90;100295.59;5054800;28;20277;-81
2023/01/07 02:20:51;;;;;;;4.13;3.63;;;;;;;7.23;63.40;100290.63;5051714;28;20193;-84
2023/01/07 02:23:58;;;;;;;4.83;4.40;;;;;;;7.24;62.99;100289.63;5054769;28;20630;-89
2023/01/07 02:27:10;;;;;;;4.13;3.60;;;;;;;7.26;63.32;100283.19;5054537;28;20192;-87
2023/01/07 02:30:24;;;;;;;7.87;3.87;;;;;;;7.25;62.97;100291.28;5051448;28;20264;-85
2023/01/07 02:33:26;;;;;;;4.80;4.50;;;;;;;7.22;63.14;100295.06;5039603;28;20662;-84
2023/01/07 02:36:11;;;;;;;4.83;4.23;;;;;;;7.19;63.18;100299.84;5051547;28;20253;-83
2023/01/07 02:38:49;;;;;;;5.27;4.27;;;;;;;7.14;63.28;100291.53;5054085;28;20196;-82
2023/01/07 02:41:27;;;;;;;4.73;4.33;;;;;;;7.04;63.86;100302.19;5053834;28;20218;-79
2023/01/07 02:44:03;;;;;;;6.67;4.50;;;;;;;6.93;64.19;100298.94;5055544;28;20198;-79
2023/01/07 02:46:36;;;;;;;4.53;4.23;;;;;;;6.96;63.94;100296.00;5054258;28;20283;-79
2023/01/07 02:49:07;;;;;;;4.33;3.97;;;;;;;6.90;64.66;100304.56;5045323;28;20737;-79
2023/01/07 02:51:37;;;;;;;4.80;4.40;;;;;;;6.76;64.77;100305.94;5054151;28;20268;-78
2023/01/07 02:54:09;;;;;;;4.83;4.43;;;;;;;6.67;65.88;100306.84;5053710;28;20220;-78
2023/01/07 02:56:50;;;;;;;5.10;4.27;;;;;;;6.67;65.53;100311.28;5054198;28;20189;-79
2023/01/07 02:59:35;;;;;;;13.00;4.93;;;;;;;6.69;65.88;100319.91;5038504;28;20186;-78
2023/01/07 03:02:18;;;;;;;5.80;4.70;;;;;;;6.59;65.64;100316.50;5033540;28;20182;-75
2023/01/07 03:05:10;;;;;;;7.07;3.87;;;;;;;6.50;66.24;100312.13;5034794;28;20204;-79
2023/01/07 03:07:53;;;;;;;7.23;5.00;;;;;;;6.43;67.24;100300.50;5037563;28;20347;-79
2023/01/07 03:10:27;;;;;;;6.90;4.70;;;;;;;6.44;67.26;100307.41;5048281;28;20247;-79
2023/01/07 03:13:00;;;;;;;7.57;4.63;;;;;;;6.48;67.04;100314.06;5055233;28;20185;-80
2023/01/07 03:15:30;;;;;;;4.33;4.00;;;;;;;6.43;67.25;100308.41;5055384;28;20193;-80
2023/01/07 03:18:03;;;;;;;5.70;3.93;;;;;;;6.40;66.13;100328.00;5054725;28;20200;-80
2023/01/07 03:20:33;;;;;;;6.40;4.57;;;;;;;6.36;66.50;100321.38;5054363;28;20195;-79
2023/01/07 03:23:06;;;;;;;4.10;3.80;;;;;;;6.42;66.58;100325.22;5037596;28;20247;-78
2023/01/07 03:25:37;;;;;;;4.43;4.00;;;;;;;6.38;66.12;100314.16;5033553;28;20255;-78
2023/01/07 03:28:07;;;;;;;4.60;4.20;;;;;;;6.42;66.16;100319.94;5052944;28;20268;-80
2023/01/07 03:30:34;;;;;;;4.03;3.73;;;;;;;6.31;66.38;100315.72;5052685;28;20219;-79
2023/01/07 03:33:07;;;;;;;4.53;4.23;;;;;;;6.35;66.71;100314.44;5051778;28;20250;-75
2023/01/07 03:35:37;;;;;;;4.13;3.83;;;;;;;6.13;67.20;100311.38;5033752;28;20343;-80
2023/01/07 03:38:07;;;;;;;6.20;4.03;;;;;;;6.01;68.01;100320.47;5034123;28;20208;-79
2023/01/07 03:40:34;;;;;;;5.17;3.77;;;;;;;5.97;68.18;100313.84;5033034;28;20193;-77
2023/01/07 03:42:59;;;;;;;7.33;4.43;;;;;;;6.00;68.39;100319.63;5037013;28;20189;-77
2023/01/07 03:45:28;;;;;;;4.70;4.20;;;;;;;6.04;67.90;100320.19;5032700;28;20255;-78
2023/01/07 03:47:56;;;;;;;5.57;4.10;;;;;;;6.03;68.23;100323.78;5043806;28;20212;-79
2023/01/07 03:50:23;;;;;;;4.50;4.10;;;;;;;6.03;68.13;100326.41;5053638;28;20192;-79
2023/01/07 03:52:50;;;;;;;6.80;4.77;;;;;;;6.05;67.83;100325.31;5052024;28;20226;-76
2023/01/07 03:55:19;;;;;;;8.27;4.50;;;;;;;6.04;68.36;100325.47;5052734;28;20287;-77
2023/01/07 03:57:46;;;;;;;5.40;5.00;;;;;;;6.05;68.22;100317.41;5052670;28;20193;-76
2023/01/07 04:00:14;;;;;;;4.93;4.27;;;;;;;5.96;69.20;100317.47;5052698;28;20253;-76
2023/01/07 04:02:41;;;;;;;4.83;4.43;;;;;;;5.92;68.60;100316.91;5052060;28;20193;-75
2023/01/07 04:05:09;;;;;;;4.40;4.10;;;;;;;5.91;68.78;100322.34;5032683;28;20193;-76
2023/01/07 04:07:36;;;;;;;5.10;4.70;;;;;;;5.88;68.94;100320.00;5032615;28;20247;-76
2023/01/07 04:10:02;;;;;;;7.63;4.70;;;;;;;5.83;68.33;100327.50;5032632;28;20263;-75
2023/01/07 04:12:31;;;;;;;5.87;5.00;;;;;;;5.74;69.29;100332.66;5032213;28;20194;-76
2023/01/07 04:14:57;;;;;;;6.60;5.83;;;;;;;5.77;69.40;100340.25;5032225;28;20197;-75
2023/01/07 04:17:24;;;;;;;6.07;5.47;;;;;;;5.76;69.02;100327.25;5046480;28;20263;-76
2023/01/07 04:19:51;;;;;;;7.27;6.03;;;;;;;5.76;68.50;100328.03;5051979;28;20247;-76
2023/01/07 04:22:17;;;;;;;6.90;6.00;;;;;;;5.70;69.07;100335.72;5052056;28;20278;-76
2023/01/07 04:24:44;;;;;;;8.03;7.13;;;;;;;5.70;68.92;100339.19;5051743;28;20198;-75
2023/01/07 04:27:11;;;;;;;5.57;5.17;;;;;;;5.71;69.08;100338.19;5051800;28;20662;-76
2023/01/07 04:29:39;;;;;;;6.20;5.80;;;;;;;5.69;68.67;100340.13;5037103;28;20188;-76
2023/01/07 04:32:05;;;;;;;7.53;5.63;;;;;;;5.59;68.57;100347.25;5051958;28;20196;-77
2023/01/07 04:34:32;;;;;;;7.10;6.60;;;;;;;5.54;69.47;100360.03;5051915;28;20192;-77
2023/01/07 04:36:59;;;;;;;14.33;7.63;;;;;;;5.55;69.68;100359.06;5052117;28;20657;-77
2023/01/07 04:39:25;;;;;;;9.03;8.00;;;;;;;5.53;70.27;100363.66;5053124;28;20196;-77
2023/01/07 04:41:52;;;;;;;19.87;14.93;;;;;;;5.59;69.86;100364.84;5051060;28;20212;-77
2023/01/07 04:44:19;;;;;;;27.43;20.07;;;;;;;5.61;69.72;100360.28;5051453;28;20247;-77
2023/01/07 04:46:47;;;;;;;29.07;23.40;;;;;;;5.63;69.30;100363.59;5051752;28;20230;-78
2023/01/07 04:49:13;;;;;;;17.27;15.20;;;;;;;5.61;68.91;100368.19;5043051;28;20221;-79
2023/01/07 04:51:40;;;;;;;12.90;9.80;;;;;;;5.58;68.94;100366.69;5032782;28;20193;-79
2023/01/07 04:54:07;;;;;;;11.97;10.40;;;;;;;5.54;69.04;100367.94;5032066;28;20260;-79
2023/01/07 04:56:33;;;;;;;9.97;8.97;;;;;;;5.52;68.80;100372.50;5031894;28;20255;-79
2023/01/07 04:59:00;;;;;;;9.87;7.90;;;;;;;5.46;69.95;100377.53;5051917;28;20761;-78
2023/01/07 05:01:29;;;;;;;10.97;8.27;;;;;;;5.33;69.82;100377.84;5048597;28;20197;-78
2023/01/07 05:03:57;;;;;;;10.33;7.67;;;;;;;5.33;70.25;100367.31;5040530;28;20671;-79
2023/01/07 05:06:24;;;;;;;8.73;6.70;;;;;;;5.36;70.01;100368.81;5040744;28;20247;-78
2023/01/07 05:08:51;;;;;;;14.17;7.77;;;;;;;5.30;70.53;100367.56;5040545;28;20212;-80
2023/01/07 05:11:20;;;;;;;14.20;7.50;;;;;;;5.34;69.87;100371.59;5042165;28;20259;-82
2023/01/07 05:13:47;;;;;;;9.10;7.20;;;;;;;5.30;69.58;100372.84;5040876;28;20193;-82
2023/01/07 05:16:14;;;;;;;11.00;7.17;;;;;;;5.21;70.75;100373.69;5041444;28;20193;-81
2023/01/07 05:18:40;;;;;;;11.13;7.37;;;;;;;5.19;70.56;100374.81;5042213;28;20247;-81
2023/01/07 05:21:10;;;;;;;8.53;6.80;;;;;;;5.18;70.72;100375.75;5041927;28;20350;-81
2023/01/07 05:23:36;;;;;;;9.70;7.50;;;;;;;5.20;70.35;100376.47;5040549;28;20259;-81
2023/01/07 05:26:03;;;;;;;9.93;6.80;;;;;;;5.11;70.73;100379.94;5034129;28;20255;-80
2023/01/07 05:28:30;;;;;;;9.37;7.10;;;;;;;4.93;71.36;100379.81;5040101;28;20712;-81
2023/01/07 05:30:57;;;;;;;7.10;6.40;;;;;;;4.86;71.37;100386.59;5041380;28;21138;-81
2023/01/07 05:33:23;;;;;;;11.07;6.70;;;;;;;4.90;71.81;100385.34;5040523;28;20185;-81
2023/01/07 05:35:50;;;;;;;9.37;6.30;;;;;;;4.96;71.64;100389.22;5040208;28;20243;-82
2023/01/07 05:38:18;;;;;;;7.83;7.10;;;;;;;5.01;71.46;100382.56;5041925;28;20200;-79
2023/01/07 05:40:47;;;;;;;10.67;7.00;;;;;;;5.02;72.27;100384.22;5043013;28;20197;-79
2023/01/07 05:43:14;;;;;;;9.40;6.93;;;;;;;5.06;71.25;100382.97;5040737;28;20200;-78
2023/01/07 05:45:43;;;;;;;8.57;7.50;;;;;;;5.05;71.68;100389.22;5040901;28;20188;-80
2023/01/07 05:48:09;;;;;;;9.37;6.40;;;;;;;5.08;70.83;100388.97;5042026;28;20266;-80
2023/01/07 05:50:37;;;;;;;10.37;7.40;;;;;;;5.11;70.83;100391.28;5045705;28;20193;-81
2023/01/07 05:53:04;;;;;;;12.07;7.83;;;;;;;5.11;70.42;100393.91;5039947;28;20250;-80
2023/01/07 05:55:32;;;;;;;11.00;8.33;;;;;;;4.96;70.92;100392.69;5043786;28;20200;-80
2023/01/07 05:57:59;;;;;;;15.33;8.80;;;;;;;4.80;72.03;100384.50;5044178;28;20197;-78
2023/01/07 06:00:26;;;;;;;13.17;8.73;;;;;;;4.80;71.81;100395.03;5043582;28;20197;-79
2023/01/07 06:02:52;;;;;;;15.63;8.53;;;;;;;4.69;72.20;100392.53;5043416;28;20231;-77
2023/01/07 06:05:19;;;;;;;9.43;8.07;;;;;;;4.64;72.53;100389.47;5043679;28;20188;-77
2023/01/07 06:07:46;;;;;;;10.67;9.27;;;;;;;4.62;73.80;100391.41;5045176;28;20196;-78
2023/01/07 06:10:12;;;;;;;13.83;9.77;;;;;;;4.74;73.75;100389.50;5043310;28;20193;-79
2023/01/07 06:12:41;;;;;;;16.03;8.97;;;;;;;4.84;73.12;100399.06;5043817;28;20251;-80
2023/01/07 06:15:08;;;;;;;19.50;9.13;;;;;;;4.83;73.49;100396.56;5045146;28;20200;-80
2023/01/07 06:17:35;;;;;;;13.07;8.43;;;;;;;4.82;73.49;100393.09;5045615;28;20664;-77
2023/01/07 06:20:02;;;;;;;15.70;8.43;;;;;;;4.87;73.39;100396.13;5042998;28;20189;-79
2023/01/07 06:22:28;;;;;;;24.07;9.77;;;;;;;4.95;72.73;100398.09;5042396;28;20765;-80
2023/01/07 06:24:55;;;;;;;27.63;8.90;;;;;;;4.94;72.83;100405.16;5044126;28;20246;-81
2023/01/07 06:27:22;;;;;;;40.57;10.27;;;;;;;4.96;72.71;100405.84;5044444;28;20189;-79
2023/01/07 06:29:50;;;;;;;20.30;9.40;;;;;;;5.04;73.81;100403.38;5044056;28;20217;-78
2023/01/07 06:32:16;;;;;;;18.90;9.70;;;;;;;5.27;73.08;100399.44;5043827;28;20263;-79
2023/01/07 06:34:43;;;;;;;16.70;10.53;;;;;;;5.53;71.89;100411.09;5046906;28;20332;-79
2023/01/07 06:37:10;;;;;;;14.17;10.53;;;;;;;5.72;71.44;100415.47;5042705;28;20193;-80
2023/01/07 06:39:37;;;;;;;21.17;11.40;;;;;;;5.99;70.13;100422.63;5043257;28;20227;-83
2023/01/07 06:42:03;;;;;;;32.80;13.80;;;;;;;6.26;69.24;100420.03;5044325;28;20200;-79
2023/01/07 06:44:30;;;;;;;17.10;12.00;;;;;;;6.56;68.36;100427.63;5042268;28;20264;-80
2023/01/07 06:46:58;;;;;;;21.30;12.13;;;;;;;6.89;67.88;100416.44;5043755;28;20190;-82
2023/01/07 06:49:25;;;;;;;17.57;10.03;;;;;;;7.17;65.99;100413.59;5040980;28;20307;-80
2023/01/07 06:51:52;;;;;;;16.77;10.40;;;;;;;7.47;66.21;100421.09;5052919;28;20252;-82
2023/01/07 06:54:18;;;;;;;20.20;13.23;;;;;;;7.82;63.67;100428.97;5052943;28;20205;-81
2023/01/07 06:56:45;;;;;;;36.83;18.57;;;;;;;8.03;61.41;100428.56;5043834;28;20193;-83
2023/01/07 06:59:14;;;;;;;46.13;25.97;;;;;;;8.11;61.59;100426.81;5033627;28;20572;-83
2023/01/07 07:01:40;;;;;;;43.10;25.17;;;;;;;8.44;61.52;100430.47;5034561;28;20545;-85
2023/01/07 07:04:08;;;;;;;53.63;25.30;;;;;;;8.81;60.74;100425.59;5053337;28;20604;-77
2023/01/07 07:06:35;;;;;;;33.60;19.50;;;;;;;9.23;58.24;100439.63;5052881;28;20188;-77
2023/01/07 07:09:02;;;;;;;46.10;20.93;;;;;;;9.65;58.33;100429.66;5053275;28;20570;-81
2023/01/07 07:11:28;;;;;;;49.10;20.17;;;;;;;10.00;55.55;100432.75;5040020;28;20197;-78
2023/01/07 07:13:55;;;;;;;35.37;17.33;;;;;;;10.32;54.29;100421.25;5033254;28;20197;-72
2023/01/07 07:16:22;;;;;;;16.00;9.17;;;;;;;11.58;84.18;100421.59;5033702;28;20197;-70
2023/01/07 07:18:50;;;;;;;17.97;9.33;;;;;;;12.16;64.29;100433.22;5038196;28;20286;-66
2023/01/07 07:21:18;;;;;;;24.97;12.13;;;;;;;12.69;51.09;100456.06;5041668;28;20728;-66
2023/01/07 07:23:45;;;;;;;15.67;11.53;;;;;;;12.50;49.28;100449.47;5033281;28;20231;-72
2023/01/07 07:26:11;;;;;;;22.97;12.87;;;;;;;12.48;47.58;100448.84;5038873;28;20202;-73
2023/01/07 07:28:41;;;;;;;17.67;11.87;;;;;;;11.95;50.46;100449.09;5037586;28;20226;-64
2023/01/07 07:31:08;;;;;;;18.40;9.73;;;;;;;11.89;49.35;100456.97;5037196;28;20257;-72
2023/01/07 07:33:35;;;;;;;12.03;9.30;;;;;;;11.73;49.92;100451.78;5032654;28;20244;-68
2023/01/07 07:36:02;;;;;;;16.73;9.40;;;;;;;11.85;50.83;100445.88;5032767;28;20203;-68
2023/01/07 07:38:30;;;;;;;12.67;7.63;;;;;;;12.50;50.30;100456.66;5034106;28;20285;-69
2023/01/07 07:40:56;;;;;;;7.70;5.83;;;;;;;12.81;51.61;100450.06;5050867;28;20194;-69
2023/01/07 07:43:23;;;;;;;10.60;6.53;;;;;;;12.66;50.63;100454.59;5041082;28;20265;-69
2023/01/07 07:45:50;;;;;;;32.33;7.63;;;;;;;13.45;48.65;100449.16;5041064;28;20199;-71
2023/01/07 07:48:17;;;;;;;16.27;10.80;;;;;;;13.68;46.28;100452.44;5046308;28;20197;-70
2023/01/07 07:50:43;;;;;;;6.87;5.97;;;;;;;14.04;53.45;100446.97;5052712;28;20222;-69
2023/01/07 07:53:10;;;;;;;10.47;7.77;;;;;;;14.84;46.43;100462.28;5052304;28;20733;-72
2023/01/07 07:55:39;;;;;;;8.97;7.37;;;;;;;15.04;46.23;100449.75;5052140;28;20355;-70
2023/01/07 07:58:06;;;;;;;8.67;7.80;;;;;;;15.57;41.49;100466.81;5039163;28;20243;-71
2023/01/07 08:00:33;;;;;;;15.13;6.80;;;;;;;15.93;40.08;100461.06;5032449;28;20193;-76
2023/01/07 08:03:00;;;;;;;6.17;5.67;;;;;;;15.96;38.45;100456.09;5033649;28;20619;-77
2023/01/07 08:05:28;;;;;;;6.67;5.50;;;;;;;15.71;39.53;100453.22;5052001;28;20193;-81
2023/01/07 08:07:56;;;;;;;10.50;5.37;;;;;;;15.71;39.15;100453.22;5052141;28;20196;-74
2023/01/07 08:10:28;;;;;;;7.17;5.30;;;;;;;15.74;38.95;100463.53;5050820;28;20228;-79
2023/01/07 08:12:57;;;;;;;7.27;6.57;;;;;;;15.65;39.02;100459.38;5045277;28;20189;-77
2023/01/07 08:15:24;;;;;;;6.40;5.77;;;;;;;15.74;38.64;100460.03;5032407;28;20189;-80
2023/01/07 08:17:58;;;;;;;6.00;5.50;;;;;;;15.35;38.74;100452.78;5031737;28;20277;-76
2023/01/07 08:20:25;;;;;;;13.77;5.77;;;;;;;14.81;40.83;100448.47;5032957;28;20188;-77
2023/01/07 08:22:51;;;;;;;5.57;4.63;;;;;;;14.73;40.15;100457.50;5051863;28;20691;-74
2023/01/07 08:25:19;;;;;;;6.73;4.33;;;;;;;14.50;52.35;100430.22;5051276;28;20193;-73
2023/01/07 08:27:45;;;;;;;8.13;4.60;;;;;;;15.33;58.31;100424.53;5052286;28;20287;-73
2023/01/07 08:30:14;;;;;;;8.53;4.37;;;;;;;15.86;48.15;100429.72;5051522;28;20248;-70
2023/01/07 08:32:40;;;;;;;9.03;4.37;;;;;;;16.35;46.67;100431.91;5049183;28;20200;-73
2023/01/07 08:35:08;;;;;;;7.03;4.83;;;;;;;16.98;44.26;100420.34;5039529;28;20265;-72
2023/01/07 08:37:35;;;;;;;9.63;4.80;;;;;;;17.23;36.24;100431.16;5051364;28;20194;-75
2023/01/07 08:40:02;;;;;;;5.77;4.90;;;;;;;16.89;36.33;100429.69;5050727;28;20735;-78
2023/01/07 08:42:29;;;;;;;5.43;4.67;;;;;;;16.44;39.55;100428.00;5052170;28;20240;-70
2023/01/07 08:44:56;;;;;;;6.80;5.40;;;;;;;16.41;38.31;100419.56;5047199;28;20192;-77
2023/01/07 08:47:26;;;;;;;11.57;5.83;;;;;;;16.36;37.17;100419.31;5041906;28;20196;-75
2023/01/07 08:49:53;;;;;;;10.37;5.77;;;;;;;16.15;37.51;100431.13;5041952;28;20244;-79
2023/01/07 08:52:20;;;;;;;14.67;5.83;;;;;;;15.77;38.46;100420.25;5040392;28;20665;-79
2023/01/07 08:54:47;;;;;;;14.17;5.80;;;;;;;15.85;38.37;100414.69;5042866;28;20216;-79
2023/01/07 08:57:14;;;;;;;10.30;5.40;;;;;;;16.04;38.33;100418.38;5041167;28;20185;-79
2023/01/07 08:59:42;;;;;;;4.93;4.53;;;;;;;16.06;38.51;100407.44;5042717;28;20261;-77
2023/01/07 09:02:12;;;;;;;6.00;5.50;;;;;;;16.08;38.40;100408.06;5045796;28;20704;-78
2023/01/07 09:04:41;;;;;;;5.47;5.00;;;;;;;16.26;38.10;100397.50;5051465;28;20649;-79
2023/01/07 09:07:08;;;;;;;9.97;8.50;;;;;;;16.35;37.63;100393.53;5052674;28;20247;-71
2023/01/07 09:09:35;;;;;;;8.60;6.00;;;;;;;16.19;38.33;100396.69;5037239;28;20217;-76
2023/01/07 09:12:02;;;;;;;12.83;5.23;;;;;;;16.15;38.42;100390.09;5031744;28;20201;-79
2023/01/07 09:14:29;;;;;;;7.03;5.00;;;;;;;15.81;38.77;100383.97;5036686;28;20251;-83
2023/01/07 09:16:56;;;;;;;5.37;4.87;;;;;;;16.00;38.58;100378.81;5047354;28;20257;-80
2023/01/07 09:19:22;;;;;;;5.40;4.90;;;;;;;16.22;38.58;100370.28;5050718;28;20200;-79
2023/01/07 09:21:51;;;;;;;5.63;5.13;;;;;;;16.44;38.62;100368.16;5050979;28;20587;-78
2023/01/07 09:24:18;;;;;;;14.63;4.93;;;;;;;16.54;38.38;100363.19;5051596;28;20219;-77
2023/01/07 09:26:44;;;;;;;6.43;4.53;;;;;;;16.63;37.98;100367.28;5041776;28;20612;-78
2023/01/07 09:29:11;;;;;;;5.60;3.70;;;;;;;16.87;37.23;100363.84;5043065;28;20213;-80
2023/01/07 09:31:38;;;;;;;5.57;4.33;;;;;;;16.71;38.02;100359.81;5041981;28;20744;-83
2023/01/07 09:34:05;;;;;;;4.43;4.03;;;;;;;16.64;37.75;100332.19;5035498;28;20189;-78
2023/01/07 09:36:32;;;;;;;8.07;4.53;;;;;;;16.55;37.87;100341.53;5052530;28;20266;-81
2023/01/07 09:39:01;;;;;;;4.63;3.90;;;;;;;16.48;38.30;100332.69;5046822;28;20231;-76
2023/01/07 09:41:37;;;;;;;4.23;3.83;;;;;;;16.75;41.74;100318.09;5054658;28;20626;-75
2023/01/07 09:44:15;;;;;;;5.67;4.93;;;;;;;17.12;37.96;100332.50;5046265;28;20187;-77
2023/01/07 09:46:43;;;;;;;5.07;4.50;;;;;;;17.27;38.88;100330.34;5046072;28;20242;-79
2023/01/07 09:49:17;;;;;;;7.17;4.63;;;;;;;17.23;37.78;100326.44;5052471;28;21480;-78
2023/01/07 09:51:48;;;;;;;5.33;4.50;;;;;;;16.87;38.38;100319.03;5039951;28;20315;-79
2023/01/07 09:54:24;;;;;;;8.40;5.57;;;;;;;16.68;38.90;100314.63;5034480;28;20719;-80
2023/01/07 09:56:51;;;;;;;5.83;3.80;;;;;;;16.21;39.54;100298.13;5034792;28;20212;-80
2023/01/07 09:59:19;;;;;;;8.03;3.43;;;;;;;16.06;40.20;100293.03;5034567;28;20202;-74
2023/01/07 10:01:53;;;;;;;8.83;3.40;;;;;;;16.31;40.50;100293.13;5034334;28;20665;-77
2023/01/07 10:04:29;;;;;;;26.23;4.30;;;;;;;16.51;39.69;100283.13;5034175;28;20699;-78
2023/01/07 10:07:05;;;;;;;3.10;2.90;;;;;;;16.63;39.45;100294.84;5034706;28;20220;-80
2023/01/07 10:09:47;;;;;;;3.10;2.80;;;;;;;16.42;40.27;100284.44;5034251;28;20763;-83
2023/01/07 10:15:53;;;;;;;;;;;;;;;;;;;;;
2023/01/07 10:18:43;;;;;;;4.43;2.87;;;;;;;16.44;40.67;100260.91;5053275;28;20192;-81
2023/01/07 10:21:17;;;;;;;3.47;2.53;;;;;;;16.76;40.19;100254.50;5054258;28;20188;-80
2023/01/07 10:23:48;;;;;;;4.33;2.97;;;;;;;16.95;39.27;100258.91;5049878;28;20278;-82
2023/01/07 10:26:25;;;;;;;3.93;2.30;;;;;;;16.97;38.82;100254.13;5047414;28;20189;-81
2023/01/07 10:28:55;;;;;;;2.37;2.17;;;;;;;16.92;38.92;100252.13;5054752;28;20519;-80
2023/01/07 10:31:25;;;;;;;2.40;2.30;;;;;;;16.83;39.54;100249.91;5036728;28;20587;-80
2023/01/07 10:33:54;;;;;;;4.67;2.40;;;;;;;17.05;39.08;100243.13;5039437;28;20189;-81
2023/01/07 10:36:25;;;;;;;2.43;2.33;;;;;;;16.94;38.94;100241.19;5050498;28;20686;-81
2023/01/07 10:39:01;;;;;;;7.77;5.77;;;;;;;16.74;38.86;100235.13;5055681;28;20194;-81
2023/01/07 10:41:41;;;;;;;3.43;2.60;;;;;;;16.86;39.57;100236.06;5036713;28;20200;-81
2023/01/07 10:44:31;;;;;;;15.40;7.20;;;;;;;16.95;39.82;100229.38;5035286;28;20618;-82
2023/01/07 10:47:08;;;;;;;18.47;4.73;;;;;;;17.02;39.27;100230.16;5039451;28;20185;-79
2023/01/07 10:49:57;;;;;;;8.70;3.33;;;;;;;17.05;39.57;100216.28;5052195;28;20213;-81
2023/01/07 10:52:35;;;;;;;6.03;3.50;;;;;;;17.18;39.50;100208.94;5054542;28;20207;-79
2023/01/07 10:55:31;;;;;;;5.87;3.33;;;;;;;17.03;39.32;100194.22;5055737;28;20187;-81
2023/01/07 10:57:59;;;;;;;7.43;3.00;;;;;;;17.14;39.65;100199.69;5037823;28;20196;-79
2023/01/07 11:00:26;;;;;;;4.43;2.80;;;;;;;16.97;39.88;100173.63;5034195;28;20202;-82
2023/01/07 11:02:56;;;;;;;6.17;2.77;;;;;;;16.86;40.33;100195.81;5034180;28;20189;-83
2023/01/07 11:05:25;;;;;;;3.50;2.90;;;;;;;16.83;40.45;100164.88;5045897;28;20201;-81
2023/01/07 11:07:56;;;;;;;3.73;3.00;;;;;;;17.06;40.65;100180.38;5034208;28;20189;-82
2023/01/07 11:10:25;;;;;;;4.17;2.90;;;;;;;16.92;40.53;100174.28;5048377;28;20298;-81
2023/01/07 11:12:56;;;;;;;13.67;3.23;;;;;;;16.59;41.10;100156.81;5053507;28;20204;-82
2023/01/07 11:15:28;;;;;;;6.20;4.37;;;;;;;16.71;40.99;100166.63;5053720;28;20189;-81
2023/01/07 11:17:58;;;;;;;4.43;3.00;;;;;;;16.63;41.20;100168.75;5033105;28;20189;-81
2023/01/07 11:20:45;;;;;;;3.97;2.93;;;;;;;16.63;41.13;100160.72;5045247;28;20208;-79
2023/01/07 11:23:19;;;;;;;5.20;3.50;;;;;;;16.72;41.43;100160.22;5051881;28;20563;-76
2023/01/07 11:25:46;;;;;;;11.73;4.23;;;;;;;16.75;41.56;100150.91;5043884;28;20272;-75
2023/01/07 11:28:19;;;;;;;23.33;4.33;;;;;;;16.92;47.84;100143.94;5031225;28;20245;-79
2023/01/07 11:30:56;;;;;;;7.80;3.37;;;;;;;16.86;42.03;100136.78;5044411;28;20208;-78
2023/01/07 11:33:26;;;;;;;11.93;3.63;;;;;;;16.98;42.06;100140.38;5051534;28;20184;-76
2023/01/07 11:35:54;;;;;;;3.97;2.80;;;;;;;16.92;41.52;100141.25;5051411;28;20207;-74
2023/01/07 11:38:28;;;;;;;5.67;2.83;;;;;;;16.93;41.46;100140.19;5052646;28;20210;-72
2023/01/07 11:40:57;;;;;;;43.47;4.77;;;;;;;16.92;41.23;100128.66;5052894;28;20195;-76
2023/01/07 11:43:24;;;;;;;16.47;6.10;;;;;;;17.00;41.49;100123.00;5040281;28;20277;-74
2023/01/07 11:45:55;;;;;;;6.70;3.93;;;;;;;17.02;41.53;100120.13;5033525;28;20207;-75
2023/01/07 11:48:28;;;;;;;7.07;3.57;;;;;;;17.03;40.89;100121.75;5052503;28;20236;-76